Time;durP1;ratioP1;P1;durP2;ratioP2;P2;SDS_P1;SDS_P2;PMS_P1;PMS_P2;Temp;Humidity;BMP_temperature;BMP_pressure;BME280_temperature;BME280_humidity;BME280_pressure;Samples;Min_cycle;Max_cycle;Signal;HPM_P1;HPM_P2
2022/09/13 00:00:49;;;;;;;0.70;0.70;;;14.50;99.90;;;;;;5073335;28;20239;-65
2022/09/13 00:03:15;;;;;;;0.60;0.60;;;14.50;99.90;;;;;;5073544;28;20659;-65
2022/09/13 00:05:41;;;;;;;1.75;0.77;;;14.50;99.90;;;;;;5073291;28;20197;-65
2022/09/13 00:08:07;;;;;;;0.70;0.70;;;14.40;99.90;;;;;;5073509;28;20282;-65
2022/09/13 00:10:36;;;;;;;0.60;0.60;;;14.50;99.90;;;;;;5073515;28;20201;-65
2022/09/13 00:13:02;;;;;;;0.85;0.75;;;14.40;99.90;;;;;;5073171;28;20216;-65
2022/09/13 00:15:28;;;;;;;0.68;0.68;;;14.50;99.90;;;;;;5073243;28;20196;-65
2022/09/13 00:17:55;;;;;;;0.70;0.70;;;14.50;99.90;;;;;;5073260;28;20193;-64
2022/09/13 00:20:20;;;;;;;0.40;0.40;;;14.50;99.90;;;;;;5073094;28;20188;-64
2022/09/13 00:22:46;;;;;;;0.40;0.40;;;14.50;99.90;;;;;;5073125;28;20605;-65
2022/09/13 00:25:12;;;;;;;1.23;0.77;;;14.50;99.90;;;;;;5073434;28;20232;-65
2022/09/13 00:27:37;;;;;;;0.47;0.47;;;14.50;99.90;;;;;;5055109;28;20207;-65
2022/09/13 00:30:04;;;;;;;1.65;1.42;;;14.50;99.90;;;;;;5073014;28;20200;-66
2022/09/13 00:32:30;;;;;;;0.50;0.50;;;14.50;99.90;;;;;;5054934;28;20201;-65
2022/09/13 00:34:56;;;;;;;1.33;1.23;;;14.50;99.90;;;;;;5072950;28;20193;-65
2022/09/13 00:37:22;;;;;;;5.18;1.33;;;14.50;99.90;;;;;;5073029;28;20292;-65
2022/09/13 00:39:48;;;;;;;0.50;0.50;;;14.50;99.90;;;;;;5073085;28;20632;-65
2022/09/13 00:42:14;;;;;;;0.50;0.50;;;14.50;99.90;;;;;;5072811;28;20224;-65
2022/09/13 00:45:02;;;;;;;0.60;0.60;;;14.50;99.90;;;;;;5092935;28;20200;-65
2022/09/13 00:47:31;;;;;;;0.40;0.40;;;14.50;99.90;;;;;;5053082;28;20197;-68
2022/09/13 00:50:23;;;;;;;0.80;0.80;;;14.50;99.90;;;;;;5062958;28;20536;-66
2022/09/13 00:52:54;;;;;;;0.73;0.73;;;14.50;99.90;;;;;;5045400;28;20221;-65
2022/09/13 00:55:24;;;;;;;1.98;0.85;;;14.50;99.90;;;;;;5054276;28;20266;-65
2022/09/13 00:57:51;;;;;;;0.50;0.50;;;14.50;99.90;;;;;;5072450;28;20559;-64
2022/09/13 01:00:18;;;;;;;0.52;0.52;;;14.60;99.90;;;;;;5072637;28;20189;-65
2022/09/13 01:02:48;;;;;;;0.40;0.40;;;14.60;99.90;;;;;;5072851;28;20212;-69
2022/09/13 01:05:16;;;;;;;0.60;0.60;;;14.50;99.90;;;;;;5072755;28;20707;-71
2022/09/13 01:07:42;;;;;;;0.43;0.43;;;14.50;99.90;;;;;;5072596;28;20189;-71
2022/09/13 01:10:09;;;;;;;0.95;0.93;;;14.50;99.90;;;;;;5072181;28;20212;-69
2022/09/13 01:12:45;;;;;;;0.50;0.50;;;14.50;99.90;;;;;;5071959;28;20254;-69
2022/09/13 01:15:11;;;;;;;1.02;0.93;;;14.50;99.90;;;;;;5038631;28;20196;-69
2022/09/13 01:17:38;;;;;;;1.48;0.95;;;14.40;99.90;;;;;;5072462;28;20219;-69
2022/09/13 01:20:05;;;;;;;0.60;0.57;;;14.40;99.90;;;;;;5072578;28;20271;-69
2022/09/13 01:22:43;;;;;;;0.88;0.88;;;14.40;99.90;;;;;;5072253;28;20350;-70
2022/09/13 01:25:46;;;;;;;0.70;0.70;;;14.40;99.90;;;;;;5072803;28;20533;-69
2022/09/13 01:28:23;;;;;;;0.35;0.35;;;14.30;99.90;;;;;;5072369;28;20608;-69
2022/09/13 01:31:04;;;;;;;0.50;0.50;;;14.20;99.90;;;;;;5072403;28;20231;-69
2022/09/13 01:34:08;;;;;;;0.47;0.47;;;14.20;99.90;;;;;;5072278;28;20243;-69
2022/09/13 01:36:36;;;;;;;0.50;0.50;;;14.10;99.90;;;;;;5061679;28;20216;-69
2022/09/13 01:39:05;;;;;;;0.40;0.40;;;14.00;99.90;;;;;;5072379;28;20196;-69
2022/09/13 01:41:48;;;;;;;0.40;0.40;;;14.00;99.90;;;;;;5072298;28;20213;-69
2022/09/13 01:44:42;;;;;;;0.50;0.50;;;13.90;99.90;;;;;;5072395;28;20307;-68
2022/09/13 01:47:36;;;;;;;0.63;0.57;;;13.80;99.90;;;;;;5072273;28;20193;-69
2022/09/13 01:50:35;;;;;;;0.63;0.63;;;13.70;99.90;;;;;;5072033;28;20690;-69
2022/09/13 01:53:17;;;;;;;1.08;0.90;;;13.60;99.90;;;;;;5071343;28;20626;-68
2022/09/13 01:55:50;;;;;;;0.40;0.40;;;13.50;99.90;;;;;;5052154;28;20620;-68
2022/09/13 01:58:32;;;;;;;1.70;1.60;;;13.50;99.90;;;;;;5052218;28;20194;-69
2022/09/13 02:01:14;;;;;;;0.60;0.60;;;13.40;99.90;;;;;;5058242;28;20675;-69
2022/09/13 02:04:02;;;;;;;0.77;0.70;;;13.40;99.90;;;;;;5071978;28;20188;-69
2022/09/13 02:07:16;;;;;;;0.50;0.50;;;13.40;99.90;;;;;;5071989;28;20189;-69
2022/09/13 02:09:47;;;;;;;2.17;1.05;;;13.40;99.90;;;;;;4990416;28;20344;-69
2022/09/13 02:12:25;;;;;;;0.70;0.70;;;13.30;99.90;;;;;;4990502;28;20240;-69
2022/09/13 02:14:59;;;;;;;0.68;0.68;;;13.30;99.90;;;;;;5009571;28;20245;-68
2022/09/13 02:17:29;;;;;;;0.57;0.57;;;13.30;99.90;;;;;;5010198;28;20551;-68
2022/09/13 02:20:08;;;;;;;0.90;0.90;;;13.30;99.90;;;;;;5010306;28;20229;-68
2022/09/13 02:22:40;;;;;;;0.65;0.65;;;13.30;99.90;;;;;;5009937;28;20276;-69
2022/09/13 02:25:12;;;;;;;0.80;0.80;;;13.30;99.90;;;;;;4994093;28;20200;-69
2022/09/13 02:27:42;;;;;;;0.50;0.50;;;13.30;99.90;;;;;;4993990;28;20215;-69
2022/09/13 02:30:11;;;;;;;0.60;0.60;;;13.20;99.90;;;;;;4994055;28;20710;-68
2022/09/13 02:32:39;;;;;;;0.63;0.63;;;13.20;99.90;;;;;;4993832;28;20208;-68
2022/09/13 02:35:14;;;;;;;0.73;0.70;;;13.20;99.90;;;;;;4993951;28;20673;-68
2022/09/13 02:37:43;;;;;;;0.82;0.80;;;13.20;99.90;;;;;;4993835;28;20211;-68
2022/09/13 02:40:14;;;;;;;0.68;0.68;;;13.20;99.90;;;;;;5033115;28;20248;-68
2022/09/13 02:42:49;;;;;;;0.75;0.75;;;13.20;99.90;;;;;;5075033;28;20201;-68
2022/09/13 02:45:15;;;;;;;0.55;0.55;;;13.20;99.90;;;;;;5075145;28;20184;-69
2022/09/13 02:47:46;;;;;;;0.75;0.75;;;13.20;99.90;;;;;;5056338;28;20540;-68
2022/09/13 02:50:58;;;;;;;0.50;0.50;;;13.20;99.90;;;;;;5055113;28;20264;-69
2022/09/13 02:53:50;;;;;;;0.50;0.50;;;13.20;99.90;;;;;;5047444;28;20293;-69
2022/09/13 02:56:26;;;;;;;0.85;0.77;;;13.20;99.90;;;;;;5024106;28;20625;-70
2022/09/13 02:59:10;;;;;;;0.50;0.50;;;13.20;99.90;;;;;;5035088;28;20217;-69
2022/09/13 03:01:38;;;;;;;0.80;0.80;;;13.10;99.90;;;;;;5043540;28;20249;-68
2022/09/13 03:04:04;;;;;;;0.52;0.52;;;13.20;99.90;;;;;;5053291;28;20205;-68
2022/09/13 03:06:30;;;;;;;0.50;0.50;;;13.20;99.90;;;;;;5054588;28;20212;-68
2022/09/13 03:09:02;;;;;;;0.80;0.80;;;13.20;99.90;;;;;;5054797;28;20186;-68
2022/09/13 03:11:32;;;;;;;0.93;0.52;;;13.20;99.90;;;;;;5055016;28;20194;-68
2022/09/13 03:14:14;;;;;;;0.80;0.80;;;13.20;99.90;;;;;;5073059;28;20260;-68
2022/09/13 03:17:05;;;;;;;0.50;0.50;;;13.20;99.90;;;;;;5074484;28;20292;-69
2022/09/13 03:19:52;;;;;;;0.50;0.50;;;13.20;99.90;;;;;;5081289;28;20192;-67
2022/09/13 03:22:29;;;;;;;0.50;0.50;;;13.20;99.90;;;;;;5094620;28;20204;-68
2022/09/13 03:25:20;;;;;;;0.77;0.77;;;13.20;99.90;;;;;;5094763;28;20220;-68
2022/09/13 03:28:11;;;;;;;3.85;1.27;;;13.20;99.90;;;;;;5094594;28;20233;-67
2022/09/13 03:30:41;;;;;;;0.63;0.63;;;13.10;99.90;;;;;;5094396;28;20207;-68
2022/09/13 03:33:39;;;;;;;0.60;0.60;;;13.20;99.90;;;;;;5093922;28;20192;-68
2022/09/13 03:36:11;;;;;;;0.82;0.82;;;13.20;99.90;;;;;;5094450;28;20191;-69
2022/09/13 03:38:43;;;;;;;0.90;0.90;;;13.10;99.90;;;;;;5085014;28;20740;-70
2022/09/13 03:41:16;;;;;;;7.55;1.10;;;13.10;99.90;;;;;;5073993;28;20208;-63
2022/09/13 03:43:44;;;;;;;0.50;0.50;;;13.10;99.90;;;;;;5073446;28;20193;-63
2022/09/13 03:46:31;;;;;;;0.50;0.50;;;13.10;99.90;;;;;;5073880;28;20184;-64
2022/09/13 03:49:05;;;;;;;0.57;0.57;;;13.10;99.90;;;;;;5072793;28;20201;-64
2022/09/13 03:51:32;;;;;;;0.60;0.60;;;13.10;99.90;;;;;;5072978;28;20199;-64
2022/09/13 03:54:02;;;;;;;0.50;0.50;;;13.10;99.90;;;;;;5073506;28;20659;-65
2022/09/13 03:56:28;;;;;;;0.70;0.70;;;13.10;99.90;;;;;;5073666;28;20196;-65
2022/09/13 03:58:54;;;;;;;0.50;0.50;;;13.10;99.90;;;;;;5073527;28;20205;-64
2022/09/13 04:01:22;;;;;;;0.70;0.70;;;13.10;99.90;;;;;;5066872;28;20232;-65
2022/09/13 04:03:48;;;;;;;0.68;0.68;;;13.10;99.90;;;;;;5053688;28;20227;-65
2022/09/13 04:06:14;;;;;;;0.80;0.80;;;13.10;99.90;;;;;;5053616;28;20201;-64
2022/09/13 04:08:39;;;;;;;0.60;0.60;;;13.10;99.90;;;;;;5063968;28;20663;-64
2022/09/13 04:11:05;;;;;;;0.55;0.55;;;13.10;99.90;;;;;;5053856;28;20202;-64
2022/09/13 04:13:31;;;;;;;49.17;1.25;;;13.10;99.90;;;;;;5053075;28;20236;-64
2022/09/13 04:16:01;;;;;;;0.60;0.57;;;13.10;99.90;;;;;;5048151;28;20242;-64
2022/09/13 04:18:27;;;;;;;0.98;0.93;;;13.20;99.90;;;;;;5093436;28;20531;-64
2022/09/13 04:20:54;;;;;;;0.90;0.90;;;13.20;99.90;;;;;;5093535;28;20553;-64
2022/09/13 04:23:20;;;;;;;0.57;0.57;;;13.20;99.90;;;;;;5093510;28;20192;-64
2022/09/13 04:25:46;;;;;;;0.60;0.60;;;13.20;99.90;;;;;;5093370;28;20242;-64
2022/09/13 04:28:12;;;;;;;0.75;0.75;;;13.20;99.90;;;;;;5093334;28;20596;-64
2022/09/13 04:30:37;;;;;;;0.50;0.50;;;13.20;99.90;;;;;;5093100;28;20220;-65
2022/09/13 04:33:03;;;;;;;0.50;0.50;;;13.20;99.90;;;;;;5093295;28;20253;-64
2022/09/13 04:35:29;;;;;;;2.40;0.82;;;13.20;99.90;;;;;;5074972;28;20204;-64
2022/09/13 04:37:58;;;;;;;0.50;0.50;;;13.20;99.90;;;;;;5093012;28;20271;-64
2022/09/13 04:40:24;;;;;;;0.47;0.47;;;13.20;99.90;;;;;;5052854;28;20664;-65
2022/09/13 04:42:50;;;;;;;0.73;0.73;;;13.20;99.90;;;;;;5052828;28;20308;-64
2022/09/13 04:45:16;;;;;;;0.68;0.68;;;13.20;99.90;;;;;;5052644;28;20671;-64
2022/09/13 04:47:41;;;;;;;0.52;0.52;;;13.20;99.90;;;;;;5052783;28;20182;-63
2022/09/13 04:50:08;;;;;;;1.00;0.82;;;13.20;99.90;;;;;;5052777;28;20558;-64
2022/09/13 04:52:34;;;;;;;0.68;0.68;;;13.20;99.90;;;;;;5052687;28;20194;-64
2022/09/13 04:55:00;;;;;;;0.52;0.52;;;13.20;99.90;;;;;;5069668;28;20580;-64
2022/09/13 04:57:29;;;;;;;0.50;0.50;;;13.20;99.90;;;;;;5072609;28;20204;-64
2022/09/13 04:59:55;;;;;;;0.60;0.60;;;13.20;99.90;;;;;;5073115;28;20200;-63
2022/09/13 05:02:21;;;;;;;0.68;0.68;;;13.20;99.90;;;;;;5072449;28;20215;-64
2022/09/13 05:04:46;;;;;;;0.70;0.70;;;13.20;99.90;;;;;;5072716;28;20196;-64
2022/09/13 05:07:12;;;;;;;1.10;0.82;;;13.20;99.90;;;;;;5054676;28;20250;-64
2022/09/13 05:09:38;;;;;;;0.50;0.50;;;13.20;99.90;;;;;;5072450;28;20258;-64
2022/09/13 05:12:04;;;;;;;0.60;0.60;;;13.20;99.90;;;;;;5077068;28;20289;-65
2022/09/13 05:14:29;;;;;;;0.50;0.50;;;13.20;99.90;;;;;;5092890;28;20203;-64
2022/09/13 05:16:55;;;;;;;0.50;0.50;;;13.30;99.90;;;;;;5092724;28;20599;-64
2022/09/13 05:19:21;;;;;;;0.60;0.60;;;13.30;99.90;;;;;;5092540;28;20188;-64
2022/09/13 05:21:47;;;;;;;0.60;0.60;;;13.30;99.90;;;;;;5092575;28;20248;-64
2022/09/13 05:24:12;;;;;;;0.73;0.73;;;13.30;99.90;;;;;;5092811;28;20184;-64
2022/09/13 05:26:38;;;;;;;0.50;0.50;;;13.30;99.90;;;;;;5092489;28;20231;-64
2022/09/13 05:29:04;;;;;;;0.55;0.55;;;13.30;99.90;;;;;;5092601;28;20241;-65
2022/09/13 05:31:36;;;;;;;0.70;0.70;;;13.30;99.90;;;;;;5092288;28;20203;-64
2022/09/13 05:34:13;;;;;;;0.40;0.40;;;13.30;99.90;;;;;;5092630;28;20279;-65
2022/09/13 05:36:40;;;;;;;0.50;0.50;;;13.30;99.90;;;;;;5052172;28;20189;-65
2022/09/13 05:39:06;;;;;;;0.50;0.50;;;13.30;99.90;;;;;;5034370;28;20220;-65
2022/09/13 05:41:32;;;;;;;0.50;0.50;;;13.30;99.90;;;;;;5052088;28;20240;-65
2022/09/13 05:43:58;;;;;;;0.40;0.40;;;13.30;99.90;;;;;;5052316;28;20197;-65
2022/09/13 05:46:24;;;;;;;0.50;0.50;;;13.30;99.90;;;;;;5034064;28;20221;-65
2022/09/13 05:48:50;;;;;;;0.90;0.90;;;13.30;99.90;;;;;;5052274;28;20288;-64
2022/09/13 05:51:21;;;;;;;0.50;0.50;;;13.30;99.90;;;;;;5069309;28;20250;-64
2022/09/13 05:53:49;;;;;;;0.40;0.40;;;13.30;99.90;;;;;;5071831;28;20197;-64
2022/09/13 05:56:18;;;;;;;0.70;0.70;;;13.30;99.90;;;;;;5072245;28;20193;-64
2022/09/13 05:58:46;;;;;;;0.40;0.40;;;13.20;99.90;;;;;;5075751;28;20235;-64
2022/09/13 06:01:14;;;;;;;0.50;0.50;;;13.30;99.90;;;;;;5075536;28;20208;-64
2022/09/13 06:03:40;;;;;;;0.40;0.40;;;13.30;99.90;;;;;;5075847;28;21252;-64
2022/09/13 06:06:07;;;;;;;0.50;0.50;;;13.20;99.90;;;;;;5075819;28;20193;-64
2022/09/13 06:08:33;;;;;;;0.55;0.55;;;13.20;99.90;;;;;;5085124;28;20203;-65
2022/09/13 06:11:05;;;;;;;0.50;0.50;;;13.30;99.90;;;;;;5096345;28;20655;-64
2022/09/13 06:13:32;;;;;;;0.47;0.47;;;13.30;99.90;;;;;;5095647;28;20235;-64
2022/09/13 06:15:59;;;;;;;0.50;0.50;;;13.30;99.90;;;;;;5095895;28;20193;-64
2022/09/13 06:18:26;;;;;;;0.57;0.57;;;13.20;99.90;;;;;;5077544;28;20241;-64
2022/09/13 06:21:00;;;;;;;0.50;0.50;;;13.20;99.90;;;;;;5095876;28;20184;-64
2022/09/13 06:23:27;;;;;;;0.50;0.50;;;13.20;99.90;;;;;;5095693;28;20697;-64
2022/09/13 06:26:07;;;;;;;0.55;0.50;;;13.20;99.90;;;;;;5095766;28;20647;-64
2022/09/13 06:28:33;;;;;;;0.57;0.57;;;13.30;99.90;;;;;;5095596;28;20184;-65
2022/09/13 06:31:11;;;;;;;0.60;0.60;;;13.30;99.90;;;;;;5090864;28;20193;-64
2022/09/13 06:33:39;;;;;;;0.70;0.70;;;13.30;99.90;;;;;;5075221;28;20678;-65
2022/09/13 06:36:14;;;;;;;0.50;0.50;;;13.30;99.90;;;;;;5075249;28;20185;-65
2022/09/13 06:38:40;;;;;;;0.50;0.50;;;13.30;99.90;;;;;;5075258;28;20269;-65
2022/09/13 06:41:08;;;;;;;0.40;0.40;;;13.30;99.90;;;;;;5075146;28;20231;-65
2022/09/13 06:43:35;;;;;;;0.40;0.40;;;13.30;99.90;;;;;;5075160;28;20200;-65
2022/09/13 06:46:12;;;;;;;0.40;0.40;;;13.30;99.90;;;;;;5075095;28;20745;-66
2022/09/13 06:48:41;;;;;;;0.55;0.55;;;13.30;99.90;;;;;;5075278;28;20271;-65
2022/09/13 06:51:12;;;;;;;0.50;0.50;;;13.30;99.90;;;;;;5057118;28;20282;-65
2022/09/13 06:53:39;;;;;;;0.40;0.40;;;13.30;99.90;;;;;;5074711;28;20197;-66
2022/09/13 06:56:07;;;;;;;0.60;0.60;;;13.30;99.90;;;;;;5073524;28;20267;-66
2022/09/13 06:58:34;;;;;;;0.40;0.40;;;13.40;99.90;;;;;;5074837;28;20682;-66
2022/09/13 07:01:18;;;;;;;0.50;0.50;;;13.40;99.90;;;;;;5074825;28;20718;-65
2022/09/13 07:03:49;;;;;;;0.50;0.50;;;13.40;99.90;;;;;;5075327;28;20220;-66
2022/09/13 07:06:18;;;;;;;0.47;0.47;;;13.40;99.90;;;;;;5095067;28;20204;-66
2022/09/13 07:08:45;;;;;;;0.50;0.50;;;13.40;99.90;;;;;;5094808;28;20193;-66
2022/09/13 07:11:13;;;;;;;0.40;0.40;;;13.40;99.90;;;;;;5095317;28;20729;-65
2022/09/13 07:13:39;;;;;;;0.40;0.40;;;13.50;99.90;;;;;;5094543;28;20699;-66
2022/09/13 07:16:07;;;;;;;0.63;0.63;;;13.50;99.90;;;;;;5094915;28;20201;-67
2022/09/13 07:18:33;;;;;;;0.40;0.40;;;13.60;99.90;;;;;;5094654;28;20188;-65
2022/09/13 07:21:07;;;;;;;1.17;0.63;;;13.80;99.90;;;;;;5094726;28;20192;-66
2022/09/13 07:23:35;;;;;;;0.43;0.43;;;14.00;99.90;;;;;;5094590;28;20188;-65
2022/09/13 07:26:03;;;;;;;0.57;0.57;;;14.30;99.90;;;;;;5094684;28;20662;-66
2022/09/13 07:28:31;;;;;;;0.43;0.43;;;14.50;99.90;;;;;;5079086;28;20219;-66
2022/09/13 07:31:05;;;;;;;0.40;0.40;;;14.60;99.90;;;;;;5074055;28;20540;-66
2022/09/13 07:33:31;;;;;;;0.43;0.43;;;14.60;99.90;;;;;;5074155;28;20251;-66
2022/09/13 07:35:58;;;;;;;0.40;0.40;;;14.60;99.90;;;;;;5074047;28;20193;-66
2022/09/13 07:38:24;;;;;;;0.40;0.40;;;14.60;99.90;;;;;;5073977;28;20194;-66
2022/09/13 07:40:55;;;;;;;4.30;0.63;;;14.60;99.90;;;;;;5073955;28;20563;-66
2022/09/13 07:43:21;;;;;;;0.50;0.50;;;14.90;99.90;;;;;;5073660;28;20283;-67
2022/09/13 07:45:47;;;;;;;0.40;0.40;;;15.30;99.90;;;;;;5071957;28;20205;-66
2022/09/13 07:48:12;;;;;;;0.80;0.80;;;15.60;99.90;;;;;;5053999;28;20194;-66
2022/09/13 07:50:38;;;;;;;0.40;0.40;;;15.80;99.90;;;;;;5035794;28;21327;-66
2022/09/13 07:53:04;;;;;;;0.30;0.30;;;15.80;99.90;;;;;;5054629;28;20198;-67
2022/09/13 07:55:30;;;;;;;0.40;0.40;;;15.80;99.90;;;;;;5073673;28;20197;-66
2022/09/13 07:57:56;;;;;;;1.30;0.60;;;15.60;99.90;;;;;;5073782;28;20287;-66
2022/09/13 08:00:24;;;;;;;0.30;0.30;;;15.50;99.90;;;;;;5073353;28;20192;-66
2022/09/13 08:02:49;;;;;;;0.38;0.38;;;15.40;99.90;;;;;;5073471;28;20205;-66
2022/09/13 08:05:15;;;;;;;0.38;0.38;;;15.40;99.90;;;;;;5073732;28;20562;-66
2022/09/13 08:07:41;;;;;;;0.40;0.40;;;15.40;99.90;;;;;;5055459;28;20195;-66
2022/09/13 08:10:07;;;;;;;0.40;0.40;;;15.40;99.90;;;;;;5073582;28;20219;-67
2022/09/13 08:12:32;;;;;;;0.40;0.40;;;15.30;99.90;;;;;;5073179;28;20229;-67
2022/09/13 08:14:58;;;;;;;0.30;0.30;;;15.20;99.90;;;;;;5073389;28;20654;-67
2022/09/13 08:17:23;;;;;;;0.60;0.60;;;15.20;99.90;;;;;;5073233;28;20288;-67
2022/09/13 08:19:49;;;;;;;0.63;0.63;;;15.20;99.90;;;;;;5072819;28;20211;-67
2022/09/13 08:22:15;;;;;;;0.40;0.40;;;15.20;99.90;;;;;;5073086;28;20200;-67
2022/09/13 08:24:40;;;;;;;0.50;0.50;;;15.20;99.90;;;;;;5072787;28;20531;-67
2022/09/13 08:27:06;;;;;;;0.50;0.50;;;15.20;99.90;;;;;;5073143;28;20280;-67
2022/09/13 08:29:31;;;;;;;4.22;0.95;;;15.10;99.90;;;;;;5055091;28;20276;-67
2022/09/13 08:31:57;;;;;;;0.38;0.38;;;15.00;99.90;;;;;;5073098;28;20280;-67
2022/09/13 08:34:23;;;;;;;0.57;0.57;;;15.00;99.90;;;;;;5072818;28;20311;-68
2022/09/13 08:36:48;;;;;;;1.10;0.88;;;15.00;99.90;;;;;;5073049;28;20193;-66
2022/09/13 08:39:14;;;;;;;0.30;0.30;;;15.20;99.90;;;;;;5072819;28;20236;-67
2022/09/13 08:41:47;;;;;;;0.45;0.45;;;15.40;99.90;;;;;;5054889;28;20247;-67
2022/09/13 08:44:17;;;;;;;0.40;0.40;;;15.90;99.90;;;;;;5072988;28;20238;-67
2022/09/13 08:46:48;;;;;;;2.75;0.50;;;16.50;99.90;;;;;;5054791;28;20189;-69
2022/09/13 08:49:27;;;;;;;0.98;0.68;;;16.90;99.90;;;;;;5054947;28;20193;-68
2022/09/13 08:51:58;;;;;;;0.30;0.30;;;17.10;99.90;;;;;;5072808;28;20192;-67
2022/09/13 08:54:24;;;;;;;0.30;0.30;;;16.80;99.90;;;;;;5072482;28;20192;-66
2022/09/13 08:57:08;;;;;;;0.32;0.32;;;16.70;99.90;;;;;;5072657;28;20631;-67
2022/09/13 09:00:25;;;;;;;0.30;0.30;;;16.90;99.90;;;;;;5072656;28;20210;-67
2022/09/13 09:03:07;;;;;;;0.30;0.30;;;17.10;99.90;;;;;;5028154;28;20267;-67
2022/09/13 09:05:46;;;;;;;0.30;0.30;;;17.10;99.90;;;;;;5072689;28;20643;-67
2022/09/13 09:08:45;;;;;;;0.32;0.32;;;17.10;99.90;;;;;;5072788;28;20189;-67
2022/09/13 09:11:40;;;;;;;0.40;0.40;;;17.30;99.90;;;;;;5054584;28;20196;-67
2022/09/13 09:14:16;;;;;;;0.30;0.30;;;17.00;99.90;;;;;;5072466;28;20252;-67
2022/09/13 09:16:52;;;;;;;0.30;0.30;;;16.40;99.90;;;;;;5072461;28;20196;-67
2022/09/13 09:19:18;;;;;;;0.40;0.40;;;16.30;99.90;;;;;;5072248;28;20196;-68
2022/09/13 09:21:47;;;;;;;0.47;0.47;;;15.90;99.90;;;;;;5071476;28;20209;-68
2022/09/13 09:24:24;;;;;;;0.32;0.32;;;15.80;99.90;;;;;;5054565;28;20188;-68
2022/09/13 09:26:52;;;;;;;0.30;0.30;;;15.60;99.90;;;;;;5072387;28;20196;-68
2022/09/13 09:29:45;;;;;;;0.75;0.73;;;15.40;99.90;;;;;;5054390;28;20239;-68
2022/09/13 09:32:41;;;;;;;0.57;0.57;;;15.30;99.90;;;;;;5064614;28;20707;-68
2022/09/13 09:35:19;;;;;;;0.40;0.40;;;15.20;99.90;;;;;;5076742;28;20201;-68
2022/09/13 09:37:58;;;;;;;0.30;0.30;;;15.50;99.90;;;;;;5076457;28;20304;-67
2022/09/13 09:40:23;;;;;;;0.60;0.60;;;15.90;99.90;;;;;;5075992;28;20204;-68
2022/09/13 09:42:49;;;;;;;0.30;0.30;;;16.20;99.90;;;;;;5076284;28;20732;-68
2022/09/13 09:45:29;;;;;;;0.85;0.70;;;16.30;99.90;;;;;;5076464;28;20200;-68
2022/09/13 09:47:58;;;;;;;0.50;0.50;;;16.30;99.90;;;;;;5076246;28;20193;-67
2022/09/13 09:50:28;;;;;;;0.75;0.55;;;16.10;99.90;;;;;;5076074;28;20189;-68
2022/09/13 09:53:07;;;;;;;0.65;0.65;;;16.10;99.90;;;;;;5079510;28;20565;-67
2022/09/13 09:55:50;;;;;;;0.40;0.40;;;16.00;99.90;;;;;;5055987;28;20569;-67
2022/09/13 09:58:17;;;;;;;0.45;0.45;;;16.20;99.90;;;;;;5056039;28;20560;-68
2022/09/13 10:00:52;;;;;;;2.05;0.70;;;16.40;99.90;;;;;;5055858;28;20558;-68
2022/09/13 10:03:20;;;;;;;0.22;0.22;;;16.50;99.90;;;;;;5055811;28;20220;-67
2022/09/13 10:05:46;;;;;;;0.50;0.50;;;16.40;99.90;;;;;;5055904;28;20185;-68
2022/09/13 10:08:33;;;;;;;0.30;0.30;;;16.50;99.90;;;;;;5055765;28;20193;-67
2022/09/13 10:11:00;;;;;;;0.30;0.30;;;16.20;99.90;;;;;;5056121;28;20201;-68
2022/09/13 10:13:27;;;;;;;1.75;0.57;;;15.90;99.90;;;;;;5092432;28;20281;-67
2022/09/13 10:15:57;;;;;;;0.50;0.50;;;16.00;99.90;;;;;;5091902;28;20199;-67
2022/09/13 10:18:24;;;;;;;0.30;0.30;;;15.80;99.90;;;;;;5057565;28;20188;-68
2022/09/13 10:21:19;;;;;;;0.30;0.30;;;15.90;99.90;;;;;;5075627;28;20217;-68
2022/09/13 10:23:49;;;;;;;0.30;0.30;;;16.50;99.90;;;;;;5075602;28;20275;-68
2022/09/13 10:26:23;;;;;;;0.30;0.30;;;17.10;99.90;;;;;;5075591;28;20242;-67
2022/09/13 10:29:13;;;;;;;0.75;0.75;;;17.70;99.90;;;;;;5075627;28;20268;-67
2022/09/13 10:31:43;;;;;;;0.30;0.30;;;18.30;99.90;;;;;;5075246;28;20583;-68
2022/09/13 10:34:21;;;;;;;0.22;0.22;;;18.70;99.90;;;;;;5057484;28;20197;-69
2022/09/13 10:37:16;;;;;;;0.30;0.30;;;19.20;99.90;;;;;;5075380;28;20275;-67
2022/09/13 10:40:17;;;;;;;2.75;1.00;;;19.40;99.90;;;;;;5048315;28;20656;-69
2022/09/13 10:42:55;;;;;;;0.30;0.30;;;19.00;99.90;;;;;;5070622;28;20701;-69
2022/09/13 10:45:26;;;;;;;0.30;0.30;;;19.10;99.90;;;;;;5075004;28;20271;-69
2022/09/13 10:47:55;;;;;;;0.20;0.20;;;19.20;99.90;;;;;;5057158;28;20280;-69
2022/09/13 10:50:30;;;;;;;0.20;0.20;;;19.60;99.90;;;;;;5074868;28;20268;-69
2022/09/13 10:52:59;;;;;;;0.30;0.30;;;19.90;99.90;;;;;;5074900;28;20196;-69
2022/09/13 10:55:28;;;;;;;0.30;0.30;;;19.70;99.90;;;;;;5074915;28;20193;-68
2022/09/13 10:58:02;;;;;;;0.20;0.20;;;19.60;99.90;;;;;;5074868;28;20231;-68
2022/09/13 11:00:31;;;;;;;9.13;0.52;;;19.50;99.90;;;;;;5073455;28;20215;-68
2022/09/13 11:03:20;;;;;;;1.17;0.40;;;19.10;99.90;;;;;;5074728;28;20201;-68
2022/09/13 11:05:54;;;;;;;0.30;0.30;;;19.00;99.90;;;;;;5074860;28;20284;-68
2022/09/13 11:08:31;;;;;;;0.40;0.40;;;18.90;99.90;;;;;;5074734;28;20185;-68
2022/09/13 11:11:12;;;;;;;0.30;0.30;;;18.40;99.90;;;;;;5073519;28;20193;-67
2022/09/13 11:13:52;;;;;;;0.32;0.32;;;17.80;99.90;;;;;;5074117;28;20263;-67
2022/09/13 11:16:36;;;;;;;0.30;0.30;;;17.80;99.90;;;;;;5074531;28;20269;-67
2022/09/13 11:19:05;;;;;;;0.30;0.30;;;17.90;99.90;;;;;;5074551;28;20773;-69
2022/09/13 11:21:30;;;;;;;0.30;0.30;;;17.50;99.90;;;;;;5074292;28;20243;-67
2022/09/13 11:24:12;;;;;;;0.52;0.50;;;17.00;99.90;;;;;;5073188;28;20224;-67
2022/09/13 11:26:51;;;;;;;0.40;0.40;;;16.80;99.90;;;;;;5074273;28;20196;-66
2022/09/13 11:29:35;;;;;;;0.30;0.30;;;16.80;99.90;;;;;;5054499;28;20664;-67
2022/09/13 11:32:25;;;;;;;0.22;0.22;;;17.10;99.90;;;;;;5065774;28;20770;-67
2022/09/13 11:35:05;;;;;;;0.30;0.30;;;16.80;99.90;;;;;;5074300;28;20219;-68
2022/09/13 11:38:04;;;;;;;0.30;0.30;;;16.60;99.90;;;;;;5073975;28;20189;-67
2022/09/13 11:41:17;;;;;;;0.40;0.40;;;16.60;99.90;;;;;;5073943;28;20533;-68
2022/09/13 11:43:53;;;;;;;2.38;0.45;;;17.00;99.90;;;;;;5019518;28;20257;-66
2022/09/13 11:46:41;;;;;;;0.30;0.30;;;16.80;99.90;;;;;;5073765;28;20561;-67
2022/09/13 11:49:30;;;;;;;0.30;0.30;;;16.50;99.90;;;;;;5073937;28;20322;-67
2022/09/13 11:52:04;;;;;;;0.55;0.55;;;16.20;99.90;;;;;;5073857;28;20189;-66
2022/09/13 11:54:46;;;;;;;0.30;0.30;;;15.90;99.90;;;;;;5072903;28;20652;-66
2022/09/13 11:57:20;;;;;;;0.30;0.30;;;15.60;99.90;;;;;;5073851;28;20193;-66
2022/09/13 12:00:25;;;;;;;0.40;0.40;;;15.40;99.90;;;;;;5073863;28;20603;-66
2022/09/13 12:03:14;;;;;;;0.40;0.40;;;15.20;99.90;;;;;;5069404;28;20217;-65
2022/09/13 12:05:56;;;;;;;0.50;0.50;;;14.80;99.90;;;;;;5073284;28;20571;-65
2022/09/13 12:08:28;;;;;;;0.40;0.40;;;14.50;99.90;;;;;;5073101;28;20189;-66
2022/09/13 12:11:01;;;;;;;0.40;0.40;;;14.20;99.90;;;;;;5072245;28;20311;-65
2022/09/13 12:13:30;;;;;;;0.40;0.40;;;14.00;99.90;;;;;;5072953;28;20684;-66
2022/09/13 12:16:06;;;;;;;0.60;0.60;;;13.80;99.90;;;;;;5073293;28;20211;-66
2022/09/13 12:18:38;;;;;;;0.40;0.40;;;13.60;99.90;;;;;;5073199;28;20562;-66
2022/09/13 12:21:09;;;;;;;0.40;0.40;;;13.40;99.90;;;;;;5073134;28;20744;-65
2022/09/13 12:24:04;;;;;;;0.40;0.40;;;13.30;99.90;;;;;;5072982;28;20262;-65
2022/09/13 12:26:32;;;;;;;0.63;0.63;;;13.20;99.90;;;;;;5073021;28;20231;-64
2022/09/13 12:29:19;;;;;;;0.50;0.50;;;13.00;99.90;;;;;;5073109;28;20193;-64
2022/09/13 12:31:45;;;;;;;0.60;0.60;;;12.70;99.90;;;;;;5073083;28;20686;-64
2022/09/13 12:34:22;;;;;;;0.47;0.47;;;12.50;99.90;;;;;;5073085;28;20228;-64
2022/09/13 12:37:07;;;;;;;0.50;0.50;;;12.20;99.90;;;;;;5072994;28;20188;-64
2022/09/13 12:39:44;;;;;;;0.50;0.50;;;12.10;99.90;;;;;;5072872;28;20216;-64
2022/09/13 12:43:01;;;;;;;0.50;0.50;;;12.00;99.90;;;;;;5072716;28;20290;-64
2022/09/13 12:46:07;;;;;;;0.50;0.50;;;11.90;99.90;;;;;;5028191;28;20242;-64
2022/09/13 12:48:52;;;;;;;0.50;0.50;;;11.80;99.90;;;;;;5072750;28;20191;-64
2022/09/13 12:51:45;;;;;;;0.50;0.50;;;11.70;99.90;;;;;;5072809;28;20210;-65
2022/09/13 12:54:38;;;;;;;0.50;0.50;;;11.80;99.90;;;;;;5072619;28;20189;-64
2022/09/13 12:57:17;;;;;;;0.50;0.50;;;11.90;99.90;;;;;;5072927;28;20301;-65
2022/09/13 13:00:01;;;;;;;0.50;0.50;;;11.90;99.90;;;;;;5072609;28;20191;-65
2022/09/13 13:02:44;;;;;;;0.50;0.50;;;11.90;99.90;;;;;;5072418;28;20215;-65
2022/09/13 13:05:30;;;;;;;0.47;0.47;;;11.80;99.90;;;;;;5072508;28;20200;-64
2022/09/13 13:08:05;;;;;;;0.40;0.40;;;11.80;99.90;;;;;;5072900;28;20262;-64
2022/09/13 13:10:33;;;;;;;0.50;0.50;;;11.70;99.90;;;;;;5072634;28;20226;-64
2022/09/13 13:13:22;;;;;;;0.50;0.50;;;11.70;99.90;;;;;;5072245;28;20240;-64
2022/09/13 13:15:48;;;;;;;0.50;0.50;;;11.60;99.90;;;;;;5072526;28;20189;-64
2022/09/13 13:18:31;;;;;;;0.50;0.50;;;11.50;99.90;;;;;;5072503;28;20263;-65
2022/09/13 13:20:57;;;;;;;0.50;0.50;;;11.40;99.90;;;;;;5072313;28;20212;-64